Steuben, Ohio
Current Conditions -  °F | °C
As of 5:33 AM on Thursday 23 Oct 2014 (Local Time) from KPCW Reporting Station
Few Clouds Few Clouds  
Wind Chill: 45°   Ceiling: Unl
Heat Index: 48°   Visibility: 10mi
Dew Point: 45°   Wind: 8mph
Humidity: 87%   Direction: 340°NNW
Pressure: 30.23"   Gusts: NA
Location:  41.2282°N, 82.706°W
Report Text: KPCW 230933Z AUTO 34007KT 10SM FEW012 09/07 A3023 RMK AO2 $
Loading
Personal Weather Stations






























Interactive Weather Map
Tropical Storm Tracking
New forecast layout! Learn more

10-Day Weather Forecast

Advertisements
Track Severe Weather on mobile